Time;durP1;ratioP1;P1;durP2;ratioP2;P2;SDS_P1;SDS_P2;PMS_P1;PMS_P2;Temp;Humidity;BMP_temperature;BMP_pressure;BME280_temperature;BME280_humidity;BME280_pressure;Samples;Min_cycle;Max_cycle;Signal;HPM_P1;HPM_P2
2023/06/08 03:01:52;;;;;;;18.83;8.90;;;12.70;99.90;;;;;;5395200;23;19922;-76
2023/06/08 03:04:20;;;;;;;19.05;9.48;;;12.70;99.90;;;;;;4975707;28;20046;-77
2023/06/08 03:06:46;;;;;;;22.15;9.10;;;12.70;99.90;;;;;;4976497;28;20038;-78
2023/06/08 03:09:13;;;;;;;26.10;10.50;;;12.70;99.90;;;;;;4977250;28;20053;-75
2023/06/08 03:11:39;;;;;;;20.23;9.45;;;12.80;99.90;;;;;;4975717;28;20445;-76
2023/06/08 03:14:04;;;;;;;23.60;9.98;;;12.70;99.90;;;;;;4976586;28;20065;-77
2023/06/08 03:16:31;;;;;;;21.95;9.98;;;12.70;99.90;;;;;;4977302;28;20042;-77
2023/06/08 03:18:57;;;;;;;26.20;10.40;;;12.70;99.90;;;;;;4975804;28;20140;-75
2023/06/08 03:21:28;;;;;;;23.38;10.55;;;12.70;99.90;;;;;;4975468;28;20506;-76
2023/06/08 03:23:55;;;;;;;20.90;10.65;;;12.70;99.90;;;;;;4975238;28;20471;-75
2023/06/08 03:26:21;;;;;;;23.38;10.27;;;12.70;99.90;;;;;;4976986;28;20097;-76
2023/06/08 03:28:47;;;;;;;23.00;10.98;;;12.70;99.90;;;;;;4974884;28;20042;-75
2023/06/08 03:31:13;;;;;;;22.67;11.23;;;12.60;99.90;;;;;;4958947;28;20150;-77
2023/06/08 03:33:40;;;;;;;29.98;12.38;;;12.60;99.90;;;;;;4976558;28;20457;-76
2023/06/08 03:36:06;;;;;;;29.25;11.45;;;12.60;99.90;;;;;;4976880;28;20126;-77
2023/06/08 03:38:32;;;;;;;29.33;11.30;;;12.60;99.90;;;;;;4976745;28;20081;-77
2023/06/08 03:40:57;;;;;;;25.42;11.57;;;12.60;99.90;;;;;;4975582;28;20038;-77
2023/06/08 03:43:23;;;;;;;29.40;11.88;;;12.70;99.90;;;;;;4975234;28;20054;-77
2023/06/08 03:45:49;;;;;;;21.30;11.88;;;12.60;99.90;;;;;;4975141;28;20047;-77
2023/06/08 03:48:15;;;;;;;23.65;11.23;;;12.60;99.90;;;;;;4975248;28;20049;-78
2023/06/08 03:50:43;;;;;;;23.20;11.20;;;12.70;99.90;;;;;;4975364;28;20046;-76
2023/06/08 03:53:11;;;;;;;25.48;11.13;;;12.70;99.90;;;;;;4958918;28;20046;-78
2023/06/08 03:55:36;;;;;;;26.70;12.10;;;12.70;99.90;;;;;;4976538;28;20039;-76
2023/06/08 03:58:02;;;;;;;32.40;12.43;;;12.70;99.90;;;;;;4976528;28;20502;-77
2023/06/08 04:00:29;;;;;;;25.33;12.48;;;12.70;99.90;;;;;;4976242;28;20043;-75
2023/06/08 04:02:55;;;;;;;27.52;12.60;;;12.70;99.90;;;;;;4974640;28;20057;-77
2023/06/08 04:05:21;;;;;;;25.52;12.48;;;12.70;99.90;;;;;;4974767;28;20071;-77
2023/06/08 04:07:47;;;;;;;24.10;11.75;;;12.70;99.90;;;;;;4975211;28;20089;-76
2023/06/08 04:10:13;;;;;;;22.10;11.38;;;12.70;99.90;;;;;;4975049;28;20057;-75
2023/06/08 04:12:39;;;;;;;23.42;12.00;;;12.70;99.90;;;;;;4975567;28;20366;-76
2023/06/08 04:15:07;;;;;;;24.60;12.70;;;12.70;99.90;;;;;;4974445;28;20116;-78
2023/06/08 04:17:33;;;;;;;29.85;14.18;;;12.70;99.90;;;;;;4975042;28;20078;-75
2023/06/08 04:19:58;;;;;;;27.20;12.40;;;12.70;99.90;;;;;;4974494;28;20050;-75
2023/06/08 04:22:24;;;;;;;22.80;12.27;;;12.70;99.90;;;;;;4958323;28;20046;-75
2023/06/08 04:24:50;;;;;;;25.92;12.90;;;12.80;99.90;;;;;;4975932;28;20122;-75
2023/06/08 04:27:16;;;;;;;27.23;13.73;;;12.80;99.90;;;;;;4975871;28;20043;-78
2023/06/08 04:29:41;;;;;;;29.20;13.38;;;12.80;99.90;;;;;;4975915;28;20038;-76
2023/06/08 04:32:07;;;;;;;33.53;13.07;;;12.80;99.90;;;;;;4974450;28;20050;-76
2023/06/08 04:34:33;;;;;;;30.27;13.32;;;12.80;99.90;;;;;;4974661;28;20042;-77
2023/06/08 04:36:59;;;;;;;29.50;12.52;;;12.80;99.90;;;;;;4958593;28;20050;-77
2023/06/08 04:39:24;;;;;;;27.80;13.20;;;12.80;99.90;;;;;;4974796;28;20102;-77
2023/06/08 04:41:53;;;;;;;24.58;12.43;;;12.80;99.90;;;;;;4975514;28;20498;-76
2023/06/08 04:44:20;;;;;;;26.58;12.52;;;12.90;99.90;;;;;;4974123;28;20486;-76
2023/06/08 04:46:46;;;;;;;26.23;12.55;;;12.90;99.90;;;;;;4957938;28;20046;-77
2023/06/08 04:49:14;;;;;;;26.92;13.82;;;12.90;99.90;;;;;;4974826;28;20378;-76
2023/06/08 04:51:46;;;;;;;28.80;13.32;;;12.90;99.90;;;;;;4974015;28;20043;-75
2023/06/08 04:54:15;;;;;;;23.95;12.10;;;13.00;99.90;;;;;;4975618;28;20434;-75
2023/06/08 04:56:41;;;;;;;23.50;12.35;;;13.00;99.90;;;;;;4958351;28;20050;-77
2023/06/08 04:59:10;;;;;;;25.42;11.40;;;13.00;99.90;;;;;;4958343;28;20078;-76
2023/06/08 05:01:36;;;;;;;28.30;11.23;;;13.00;99.90;;;;;;4973919;28;20047;-75
2023/06/08 05:04:07;;;;;;;24.42;10.93;;;13.00;99.90;;;;;;4975459;28;20031;-75
2023/06/08 05:06:33;;;;;;;21.67;10.07;;;13.10;99.90;;;;;;4973457;28;20410;-76
2023/06/08 05:08:58;;;;;;;19.45;11.20;;;13.10;99.90;;;;;;4973948;28;20086;-77
2023/06/08 05:11:24;;;;;;;21.65;11.25;;;13.10;99.90;;;;;;4975432;28;20070;-77
2023/06/08 05:13:50;;;;;;;22.23;10.98;;;13.20;99.90;;;;;;4974036;28;20101;-76
2023/06/08 05:16:16;;;;;;;23.75;10.70;;;13.20;99.90;;;;;;4958386;28;20054;-73
2023/06/08 05:18:42;;;;;;;23.13;11.25;;;13.20;99.90;;;;;;4974825;28;20380;-77
2023/06/08 05:21:08;;;;;;;23.70;10.73;;;13.20;99.90;;;;;;4958104;28;20047;-75
2023/06/08 05:23:34;;;;;;;24.05;9.85;;;13.20;99.90;;;;;;4954358;29;20039;-76
2023/06/08 05:25:59;;;;;;;18.08;9.77;;;13.20;99.90;;;;;;4954570;29;20043;-77
2023/06/08 05:28:26;;;;;;;21.10;9.80;;;13.30;99.90;;;;;;4953795;29;20078;-75
2023/06/08 05:30:51;;;;;;;22.08;9.93;;;13.30;99.90;;;;;;4954621;28;20054;-77
2023/06/08 05:33:17;;;;;;;23.42;9.98;;;13.30;99.90;;;;;;4954153;29;20051;-75
2023/06/08 05:35:42;;;;;;;25.77;10.07;;;13.30;99.90;;;;;;4954421;29;20043;-76
2023/06/08 05:38:08;;;;;;;19.65;9.65;;;13.40;99.90;;;;;;4955364;28;20498;-76
2023/06/08 05:40:34;;;;;;;19.90;9.18;;;13.30;99.90;;;;;;4953938;28;20098;-76
2023/06/08 05:43:00;;;;;;;20.23;9.18;;;13.40;99.90;;;;;;4953933;29;20079;-76
2023/06/08 05:45:26;;;;;;;17.35;8.52;;;13.40;99.90;;;;;;4954259;29;20099;-75
2023/06/08 05:47:51;;;;;;;20.33;8.70;;;13.40;99.90;;;;;;4953858;29;20053;-76
2023/06/08 05:50:18;;;;;;;18.48;8.73;;;13.40;99.90;;;;;;4953658;28;20039;-76
2023/06/08 05:52:44;;;;;;;23.75;9.30;;;13.40;99.90;;;;;;4953719;29;20084;-76
2023/06/08 05:55:10;;;;;;;19.45;9.40;;;13.50;99.90;;;;;;4954091;28;20051;-75
2023/06/08 05:57:36;;;;;;;17.05;8.88;;;13.50;99.90;;;;;;4954265;29;20059;-75
2023/06/08 06:00:09;;;;;;;18.33;9.35;;;13.50;99.90;;;;;;4953895;29;20094;-76
2023/06/08 06:02:35;;;;;;;18.30;8.45;;;13.50;99.90;;;;;;4954961;28;20047;-75
2023/06/08 06:05:00;;;;;;;20.00;8.23;;;13.50;99.90;;;;;;4953796;29;20094;-75
2023/06/08 06:07:26;;;;;;;17.17;8.43;;;13.50;99.90;;;;;;4953650;29;20039;-77
2023/06/08 06:09:52;;;;;;;21.23;8.02;;;13.50;99.90;;;;;;4953893;29;20035;-76
2023/06/08 06:12:17;;;;;;;25.38;8.20;;;13.50;99.90;;;;;;4953678;28;20078;-75
2023/06/08 06:14:43;;;;;;;21.20;8.30;;;13.60;99.90;;;;;;4954020;29;20450;-76
2023/06/08 06:17:09;;;;;;;19.85;8.18;;;13.60;99.90;;;;;;4953487;29;20535;-76
2023/06/08 06:19:38;;;;;;;19.95;8.80;;;13.60;99.90;;;;;;4953555;29;20074;-77
2023/06/08 06:22:10;;;;;;;17.85;8.05;;;13.60;99.90;;;;;;4937448;29;20147;-77
2023/06/08 06:24:37;;;;;;;18.65;7.35;;;13.60;99.90;;;;;;4953638;28;20050;-76
2023/06/08 06:27:05;;;;;;;27.83;8.45;;;13.60;99.90;;;;;;4956929;28;20122;-76
2023/06/08 06:29:30;;;;;;;18.17;7.25;;;13.50;99.90;;;;;;4957145;29;20146;-75
2023/06/08 06:31:56;;;;;;;20.10;7.38;;;13.60;99.90;;;;;;4941405;29;20073;-77
2023/06/08 06:34:22;;;;;;;24.25;7.70;;;13.60;99.90;;;;;;4957606;29;20392;-78
2023/06/08 06:36:48;;;;;;;24.35;8.50;;;13.60;99.90;;;;;;4957106;28;20537;-76
2023/06/08 06:39:14;;;;;;;19.08;7.30;;;13.60;99.90;;;;;;4958298;28;20035;-76
2023/06/08 06:41:40;;;;;;;20.85;8.05;;;13.70;99.90;;;;;;4956481;28;20546;-77
2023/06/08 06:44:06;;;;;;;21.85;7.72;;;13.80;99.90;;;;;;4956845;29;20047;-75
2023/06/08 06:46:32;;;;;;;17.65;7.55;;;13.80;99.90;;;;;;4956930;29;20043;-76
2023/06/08 06:48:58;;;;;;;20.58;7.43;;;13.80;99.90;;;;;;4958555;28;20038;-76
2023/06/08 06:51:25;;;;;;;22.63;8.07;;;13.90;99.90;;;;;;4958392;28;20047;-78
2023/06/08 06:53:50;;;;;;;19.70;7.28;;;13.90;99.90;;;;;;4956861;29;20102;-75
2023/06/08 06:56:16;;;;;;;17.48;7.32;;;14.00;99.90;;;;;;4957844;28;20047;-77
2023/06/08 06:58:44;;;;;;;17.58;7.28;;;14.00;99.90;;;;;;4956871;29;20199;-78
2023/06/08 07:01:13;;;;;;;15.07;6.63;;;14.10;99.90;;;;;;4957560;28;20402;-77
2023/06/08 07:03:42;;;;;;;16.55;6.72;;;14.20;99.90;;;;;;4956673;29;20158;-78
2023/06/08 07:06:09;;;;;;;18.60;6.75;;;14.20;99.90;;;;;;4940505;29;20517;-76
2023/06/08 07:08:35;;;;;;;19.85;6.95;;;14.20;99.90;;;;;;4958329;29;20127;-76
2023/06/08 07:11:01;;;;;;;15.75;7.07;;;14.30;99.90;;;;;;4958362;28;20098;-76
2023/06/08 07:13:27;;;;;;;21.73;7.97;;;14.40;99.90;;;;;;4959384;28;20035;-79
2023/06/08 07:15:53;;;;;;;28.27;8.32;;;14.40;99.90;;;;;;4956577;29;20065;-76
2023/06/08 07:18:19;;;;;;;16.13;7.10;;;14.40;99.90;;;;;;4940491;28;20039;-78
2023/06/08 07:20:48;;;;;;;18.55;6.55;;;14.50;99.90;;;;;;4956697;28;20118;-77
2023/06/08 07:23:13;;;;;;;14.40;6.03;;;14.50;99.90;;;;;;4941810;29;20104;-78
2023/06/08 07:25:39;;;;;;;14.70;6.25;;;14.60;99.90;;;;;;4958337;28;20066;-77
2023/06/08 07:28:07;;;;;;;20.02;7.22;;;14.70;99.90;;;;;;4956484;29;20544;-77
2023/06/08 07:30:33;;;;;;;17.73;6.38;;;14.80;99.90;;;;;;4957380;28;20046;-77
2023/06/08 07:32:59;;;;;;;19.92;6.95;;;14.80;99.90;;;;;;4957921;28;20051;-76
2023/06/08 07:35:25;;;;;;;17.83;6.47;;;14.90;99.90;;;;;;4957816;28;20047;-77
2023/06/08 07:37:54;;;;;;;18.90;6.57;;;15.00;99.90;;;;;;4955858;29;20102;-77
2023/06/08 07:40:20;;;;;;;15.52;6.38;;;15.00;99.90;;;;;;4956237;28;20043;-76
2023/06/08 07:42:46;;;;;;;16.02;5.90;;;15.10;99.90;;;;;;4957577;28;20121;-75
2023/06/08 07:45:13;;;;;;;17.15;6.43;;;15.20;99.90;;;;;;4957271;28;20043;-76
2023/06/08 07:47:39;;;;;;;16.23;6.50;;;15.20;99.90;;;;;;4956055;28;20103;-77
2023/06/08 07:50:06;;;;;;;17.33;6.57;;;15.30;99.90;;;;;;4955883;29;20040;-75
2023/06/08 07:52:32;;;;;;;12.82;5.60;;;15.30;99.90;;;;;;4957420;28;20102;-77
2023/06/08 07:54:58;;;;;;;15.27;5.80;;;15.40;99.90;;;;;;4955815;29;20047;-77
2023/06/08 07:57:24;;;;;;;20.42;6.90;;;15.40;99.90;;;;;;4957349;28;20427;-77
2023/06/08 07:59:49;;;;;;;16.63;6.05;;;15.50;99.90;;;;;;4955754;29;20047;-77
2023/06/08 08:02:15;;;;;;;15.02;6.45;;;15.60;99.90;;;;;;4955675;28;20051;-78
2023/06/08 08:04:41;;;;;;;13.65;6.25;;;15.70;99.90;;;;;;4939890;29;20399;-77
2023/06/08 08:07:07;;;;;;;17.02;6.38;;;15.80;99.90;;;;;;4956980;28;20039;-78
2023/06/08 08:09:32;;;;;;;21.92;7.38;;;15.80;99.90;;;;;;4955210;29;20031;-77
2023/06/08 08:11:58;;;;;;;10.65;5.20;;;15.90;99.90;;;;;;4956840;28;20099;-77
2023/06/08 08:14:24;;;;;;;16.95;5.80;;;16.00;99.90;;;;;;4955788;29;20043;-76
2023/06/08 08:16:50;;;;;;;17.35;6.18;;;16.10;99.90;;;;;;4939355;29;20047;-75
2023/06/08 08:19:16;;;;;;;17.05;6.43;;;16.20;99.90;;;;;;4956812;28;20043;-79
2023/06/08 08:21:42;;;;;;;16.77;6.18;;;16.30;99.90;;;;;;4955547;28;20047;-77
2023/06/08 08:24:08;;;;;;;17.35;6.03;;;16.40;99.90;;;;;;4955261;28;20152;-75
2023/06/08 08:26:34;;;;;;;15.13;5.88;;;16.60;99.90;;;;;;4956495;29;20039;-77
2023/06/08 08:29:00;;;;;;;19.65;5.88;;;16.60;99.90;;;;;;4956288;29;20086;-78
2023/06/08 08:31:25;;;;;;;17.35;5.60;;;16.60;99.90;;;;;;4955342;28;20138;-77
2023/06/08 08:33:51;;;;;;;17.13;6.45;;;16.80;99.90;;;;;;4956289;29;20039;-77
2023/06/08 08:36:17;;;;;;;14.77;5.32;;;16.90;99.90;;;;;;4955052;29;20039;-76
2023/06/08 08:38:43;;;;;;;13.93;5.22;;;17.00;99.90;;;;;;4956192;28;20094;-77
2023/06/08 08:41:13;;;;;;;15.43;5.30;;;17.10;99.90;;;;;;4956070;28;20398;-79
2023/06/08 08:44:00;;;;;;;13.05;6.00;;;17.20;99.90;;;;;;4956433;28;20086;-76
2023/06/08 08:46:27;;;;;;;14.70;5.68;;;17.30;99.90;;;;;;4938828;29;20105;-76
2023/06/08 08:48:58;;;;;;;13.23;5.20;;;17.40;99.90;;;;;;4954111;28;20035;-78
2023/06/08 08:51:25;;;;;;;14.77;5.28;;;17.50;99.90;;;;;;4955016;28;20125;-77
2023/06/08 08:53:52;;;;;;;14.38;6.00;;;17.70;99.90;;;;;;4956107;28;20039;-76
2023/06/08 08:56:22;;;;;;;14.48;5.50;;;17.70;99.90;;;;;;4954656;29;20178;-79
2023/06/08 08:58:50;;;;;;;14.48;5.90;;;17.80;99.90;;;;;;4956261;28;20102;-75
2023/06/08 09:01:17;;;;;;;14.57;5.70;;;17.80;99.90;;;;;;4954952;28;20487;-78
2023/06/08 09:03:43;;;;;;;15.40;5.32;;;17.90;99.90;;;;;;4954685;29;20058;-77
2023/06/08 09:06:09;;;;;;;14.35;5.78;;;18.00;99.90;;;;;;4954859;29;20039;-77
2023/06/08 09:08:35;;;;;;;15.13;5.50;;;18.10;99.90;;;;;;4938876;29;20039;-79
2023/06/08 09:11:04;;;;;;;18.73;5.70;;;18.20;99.90;;;;;;4954527;28;20395;-76
2023/06/08 09:13:31;;;;;;;14.50;5.05;;;18.40;99.90;;;;;;4954403;29;20494;-77
2023/06/08 09:16:20;;;;;;;12.50;4.85;;;18.50;99.90;;;;;;4956352;28;20103;-77
2023/06/08 09:19:02;;;;;;;15.60;5.80;;;18.60;99.90;;;;;;4951770;29;20518;-76
2023/06/08 09:21:28;;;;;;;15.35;5.15;;;18.80;99.90;;;;;;4954395;28;20058;-77
2023/06/08 09:24:17;;;;;;;14.00;5.25;;;19.00;99.90;;;;;;4954223;29;20035;-78
2023/06/08 09:26:47;;;;;;;15.35;5.00;;;19.10;99.90;;;;;;4938332;29;20075;-76
2023/06/08 09:29:35;;;;;;;14.63;4.88;;;19.30;99.90;;;;;;4938479;29;20054;-77
2023/06/08 09:32:01;;;;;;;12.45;5.00;;;19.40;99.90;;;;;;4954510;28;20047;-77
2023/06/08 09:34:29;;;;;;;13.38;4.63;;;19.60;99.90;;;;;;4954460;29;20110;-77
2023/06/08 09:37:06;;;;;;;13.85;5.32;;;19.70;99.90;;;;;;4956474;28;20367;-77
2023/06/08 09:39:42;;;;;;;13.65;5.07;;;19.80;99.90;;;;;;4955780;28;20075;-76
2023/06/08 09:42:09;;;;;;;11.13;4.90;;;19.90;99.90;;;;;;4955545;28;20044;-77
2023/06/08 09:44:36;;;;;;;14.43;4.80;;;20.00;99.90;;;;;;4955807;28;20122;-77
2023/06/08 09:47:21;;;;;;;12.63;5.32;;;20.10;99.90;;;;;;4954334;29;20059;-77
2023/06/08 09:49:49;;;;;;;14.45;4.97;;;20.20;99.90;;;;;;4956447;28;20353;-76
2023/06/08 09:52:18;;;;;;;11.45;4.43;;;20.30;99.90;;;;;;4954739;28;20075;-77
2023/06/08 09:54:45;;;;;;;15.75;5.22;;;20.40;99.90;;;;;;4955315;29;20043;-77
2023/06/08 09:57:13;;;;;;;13.82;4.78;;;20.50;99.90;;;;;;4955423;29;20062;-78
2023/06/08 09:59:45;;;;;;;12.95;4.97;;;20.60;99.90;;;;;;4957178;28;20090;-75
2023/06/08 10:02:30;;;;;;;9.70;5.15;;;20.60;99.90;;;;;;4957714;28;20538;-77
2023/06/08 10:05:01;;;;;;;11.32;4.90;;;20.70;99.90;;;;;;4957678;29;20043;-76
2023/06/08 10:07:33;;;;;;;14.35;5.82;;;20.80;99.90;;;;;;4958464;29;20039;-76
2023/06/08 10:10:09;;;;;;;12.02;5.25;;;20.80;99.90;;;;;;4959111;28;20067;-78
2023/06/08 10:12:35;;;;;;;11.55;5.32;;;20.90;99.90;;;;;;4958842;28;20102;-76
2023/06/08 10:15:02;;;;;;;17.95;5.03;;;21.10;99.90;;;;;;4959116;28;20047;-75
2023/06/08 10:17:29;;;;;;;12.18;5.03;;;21.20;99.90;;;;;;4959160;28;20058;-76
2023/06/08 10:19:56;;;;;;;13.93;4.97;;;21.30;99.90;;;;;;4959326;28;20054;-77
2023/06/08 10:22:23;;;;;;;12.13;5.05;;;21.50;99.90;;;;;;4958984;28;20126;-77
2023/06/08 10:24:49;;;;;;;13.70;4.65;;;21.60;99.90;;;;;;4957751;29;20396;-76
2023/06/08 10:27:23;;;;;;;14.25;4.78;;;21.70;99.90;;;;;;4958937;29;20035;-77
2023/06/08 10:29:58;;;;;;;15.73;5.00;;;21.80;99.90;;;;;;4957741;29;20118;-76
2023/06/08 10:32:36;;;;;;;14.57;5.93;;;21.80;99.90;;;;;;4958649;28;20399;-76
2023/06/08 10:35:05;;;;;;;15.27;5.05;;;21.90;99.90;;;;;;4957509;29;20035;-78
2023/06/08 10:37:32;;;;;;;16.73;6.00;;;22.00;99.90;;;;;;4957383;29;20050;-75
2023/06/08 10:39:59;;;;;;;10.02;4.85;;;22.20;99.90;;;;;;4958925;28;20039;-77
2023/06/08 10:42:25;;;;;;;13.80;4.75;;;22.30;99.90;;;;;;4957160;28;20043;-77
2023/06/08 10:44:56;;;;;;;12.18;5.03;;;22.40;99.90;;;;;;4958689;29;20042;-77
2023/06/08 10:47:22;;;;;;;15.80;4.80;;;22.40;99.90;;;;;;4957119;29;20050;-77
2023/06/08 10:50:01;;;;;;;12.90;4.82;;;22.60;99.90;;;;;;4957317;29;20106;-77
2023/06/08 10:52:27;;;;;;;11.55;4.45;;;22.60;99.90;;;;;;4940945;29;20113;-77
2023/06/08 10:54:56;;;;;;;16.15;5.00;;;22.80;99.90;;;;;;4958229;28;20086;-77
2023/06/08 10:57:41;;;;;;;14.32;5.10;;;22.80;99.90;;;;;;4957114;29;20047;-77
2023/06/08 11:00:23;;;;;;;11.88;4.30;;;22.90;99.90;;;;;;4958163;29;20064;-76
2023/06/08 11:02:49;;;;;;;13.88;5.05;;;22.90;99.90;;;;;;4958337;28;20051;-76
2023/06/08 11:05:16;;;;;;;11.90;4.65;;;23.00;99.90;;;;;;4958282;29;20455;-77
2023/06/08 11:07:42;;;;;;;12.90;4.53;;;23.10;99.90;;;;;;4956960;29;20155;-77
2023/06/08 11:10:08;;;;;;;11.65;5.07;;;23.20;99.90;;;;;;4957962;28;20072;-76
2023/06/08 11:12:34;;;;;;;12.88;4.63;;;23.30;99.90;;;;;;4957166;28;20058;-76
2023/06/08 11:15:00;;;;;;;12.77;4.90;;;23.30;99.90;;;;;;4958294;29;20043;-77
2023/06/08 11:17:26;;;;;;;16.67;5.43;;;23.30;99.90;;;;;;4958766;29;20062;-76
2023/06/08 11:19:52;;;;;;;10.25;4.70;;;23.20;99.90;;;;;;4958147;29;20122;-78
2023/06/08 11:22:17;;;;;;;15.55;4.70;;;23.00;99.90;;;;;;4957441;28;20476;-77
2023/06/08 11:24:43;;;;;;;11.77;4.38;;;23.00;99.90;;;;;;4957383;29;20039;-77
2023/06/08 11:27:16;;;;;;;12.60;4.70;;;22.80;99.90;;;;;;4956078;29;20054;-75
2023/06/08 11:29:44;;;;;;;10.25;4.60;;;22.70;99.90;;;;;;4957685;28;20506;-77
2023/06/08 11:32:11;;;;;;;10.02;4.43;;;22.70;99.90;;;;;;4956371;28;20075;-76
2023/06/08 11:34:37;;;;;;;14.32;4.88;;;22.80;99.90;;;;;;4940367;29;20094;-76
2023/06/08 11:37:03;;;;;;;12.75;4.20;;;22.90;99.90;;;;;;4957732;28;20047;-75
2023/06/08 11:39:33;;;;;;;12.35;4.60;;;23.10;99.90;;;;;;4957534;28;20128;-79
2023/06/08 11:42:02;;;;;;;8.85;4.55;;;23.30;99.90;;;;;;4956113;28;20051;-74
2023/06/08 11:44:30;;;;;;;12.25;4.20;;;23.50;99.90;;;;;;4956100;29;20058;-76
2023/06/08 11:46:56;;;;;;;10.23;4.53;;;23.70;99.90;;;;;;4957208;28;20039;-75
2023/06/08 11:49:23;;;;;;;12.07;4.30;;;23.90;99.90;;;;;;4940072;28;20043;-75
2023/06/08 11:51:52;;;;;;;12.45;4.30;;;24.00;99.90;;;;;;4955952;29;20094;-76
2023/06/08 11:54:18;;;;;;;10.45;3.95;;;24.10;99.90;;;;;;4955819;29;20042;-76
2023/06/08 11:56:47;;;;;;;8.18;3.90;;;24.10;99.90;;;;;;4956997;28;20451;-77
2023/06/08 11:59:16;;;;;;;13.95;4.85;;;24.10;99.90;;;;;;4939855;29;20039;-77
2023/06/08 12:01:58;;;;;;;14.50;4.78;;;24.20;99.90;;;;;;4955916;29;20043;-75
2023/06/08 12:04:33;;;;;;;9.65;4.78;;;24.30;99.90;;;;;;4939954;28;20035;-77
2023/06/08 12:07:12;;;;;;;14.48;4.97;;;24.30;99.90;;;;;;4955828;29;20039;-77
2023/06/08 12:09:39;;;;;;;13.57;4.40;;;24.40;99.90;;;;;;4957001;28;20039;-76
2023/06/08 12:12:08;;;;;;;10.30;4.28;;;24.50;99.90;;;;;;4955642;29;20502;-78
2023/06/08 12:14:45;;;;;;;11.77;5.00;;;24.50;99.90;;;;;;4955664;29;20130;-76
2023/06/08 12:17:15;;;;;;;11.88;3.90;;;24.60;99.90;;;;;;4957277;28;20042;-77
2023/06/08 12:19:45;;;;;;;11.57;3.83;;;24.70;99.90;;;;;;4955780;29;20483;-77
2023/06/08 12:22:12;;;;;;;10.80;4.20;;;24.70;99.90;;;;;;4956057;28;20439;-75
2023/06/08 12:24:38;;;;;;;10.00;4.15;;;24.70;99.90;;;;;;4957124;28;20099;-77
2023/06/08 12:27:06;;;;;;;9.05;4.00;;;24.70;99.90;;;;;;4956641;28;20035;-78
2023/06/08 12:29:32;;;;;;;13.45;4.35;;;24.70;99.90;;;;;;4956014;29;20047;-76
2023/06/08 12:31:59;;;;;;;10.20;5.13;;;24.70;99.90;;;;;;4955305;29;20075;-78
2023/06/08 12:34:26;;;;;;;12.43;4.28;;;24.70;99.90;;;;;;4956509;29;20055;-78
2023/06/08 12:36:51;;;;;;;8.48;3.88;;;24.70;99.90;;;;;;4956764;28;20050;-76
2023/06/08 12:39:17;;;;;;;10.63;4.22;;;24.70;99.90;;;;;;4939037;28;20394;-79
2023/06/08 12:41:43;;;;;;;8.52;3.92;;;24.70;99.90;;;;;;4956251;28;20043;-78
2023/06/08 12:44:10;;;;;;;10.48;3.67;;;24.70;99.90;;;;;;4956423;28;20043;-77
2023/06/08 12:46:36;;;;;;;12.02;4.75;;;24.70;99.90;;;;;;4956638;28;20039;-77
2023/06/08 12:49:02;;;;;;;9.93;4.15;;;24.80;99.90;;;;;;4956495;28;20424;-78
2023/06/08 12:51:27;;;;;;;10.30;4.07;;;24.90;99.90;;;;;;4939419;28;20134;-78
2023/06/08 12:53:53;;;;;;;11.45;3.90;;;24.80;99.90;;;;;;4956646;28;20047;-76
2023/06/08 12:56:19;;;;;;;11.98;3.90;;;24.90;99.90;;;;;;4957793;28;20074;-77
2023/06/08 12:58:44;;;;;;;13.20;4.30;;;25.00;99.90;;;;;;4938818;29;20481;-78
2023/06/08 13:01:10;;;;;;;10.95;3.95;;;25.00;99.90;;;;;;4955654;28;20043;-76
2023/06/08 13:03:36;;;;;;;13.68;4.22;;;25.10;99.90;;;;;;4955412;29;20101;-77
2023/06/08 13:06:02;;;;;;;10.05;4.30;;;25.10;99.90;;;;;;4956968;28;20099;-75
2023/06/08 13:08:27;;;;;;;9.73;3.80;;;25.20;99.90;;;;;;4955563;29;20447;-79
2023/06/08 13:10:54;;;;;;;12.40;3.80;;;25.20;99.90;;;;;;4955198;29;20039;-76
2023/06/08 13:13:20;;;;;;;12.77;4.57;;;25.20;99.90;;;;;;4955692;29;20053;-79
2023/06/08 13:15:47;;;;;;;10.80;4.18;;;25.30;99.90;;;;;;4957129;28;20039;-81
2023/06/08 13:18:12;;;;;;;10.60;3.95;;;25.20;99.90;;;;;;4956742;28;20046;-78
2023/06/08 13:20:38;;;;;;;11.73;4.20;;;25.20;99.90;;;;;;4955613;29;20459;-77
2023/06/08 13:23:04;;;;;;;9.52;3.90;;;25.10;99.90;;;;;;4955494;29;20043;-78
2023/06/08 13:25:30;;;;;;;7.95;3.70;;;25.10;99.90;;;;;;4955241;29;20047;-79
2023/06/08 13:27:56;;;;;;;7.95;3.40;;;25.10;99.90;;;;;;4955346;29;20050;-79
2023/06/08 13:30:22;;;;;;;14.32;4.65;;;25.10;99.90;;;;;;4955676;29;20479;-79
2023/06/08 13:32:48;;;;;;;11.15;4.05;;;25.20;99.90;;;;;;4955949;29;20058;-77
2023/06/08 13:35:14;;;;;;;8.23;3.60;;;25.20;99.90;;;;;;4959493;28;20039;-79
2023/06/08 13:37:40;;;;;;;9.43;4.47;;;25.20;99.90;;;;;;4961622;28;20078;-77
2023/06/08 13:40:11;;;;;;;10.45;4.00;;;25.00;99.90;;;;;;4959860;29;20051;-77
2023/06/08 13:42:37;;;;;;;9.00;3.75;;;25.00;99.90;;;;;;4959219;29;20047;-77
2023/06/08 13:45:04;;;;;;;9.88;3.65;;;25.20;99.90;;;;;;4960590;28;20499;-77
2023/06/08 13:47:30;;;;;;;12.65;3.75;;;25.20;99.90;;;;;;4943222;28;20458;-78
2023/06/08 13:49:56;;;;;;;12.13;4.15;;;25.30;99.90;;;;;;4960425;28;20079;-77
2023/06/08 13:52:22;;;;;;;12.05;4.50;;;25.30;99.90;;;;;;4961184;28;20071;-79
2023/06/08 13:54:48;;;;;;;9.75;3.60;;;25.40;99.90;;;;;;4960614;28;20039;-76
2023/06/08 13:57:13;;;;;;;10.02;3.75;;;25.40;99.90;;;;;;4959347;29;20050;-78
2023/06/08 13:59:42;;;;;;;11.50;4.28;;;25.40;99.90;;;;;;4960323;28;20039;-77
2023/06/08 14:02:08;;;;;;;10.82;4.07;;;25.40;99.90;;;;;;4959028;28;20051;-80
2023/06/08 14:04:34;;;;;;;8.85;3.33;;;25.40;99.90;;;;;;4958931;29;20039;-79
2023/06/08 14:07:00;;;;;;;8.05;3.42;;;25.40;99.90;;;;;;4959235;29;20103;-77
2023/06/08 14:09:25;;;;;;;14.13;3.95;;;25.50;99.90;;;;;;4959545;28;20507;-78
2023/06/08 14:11:51;;;;;;;10.68;3.47;;;25.50;99.90;;;;;;4959001;29;20095;-78
2023/06/08 14:14:17;;;;;;;8.70;3.05;;;25.50;99.90;;;;;;4958882;29;20102;-79
2023/06/08 14:16:44;;;;;;;9.40;3.28;;;25.60;99.90;;;;;;4958937;29;20102;-79
2023/06/08 14:19:11;;;;;;;9.25;3.20;;;25.60;99.90;;;;;;4958553;29;20094;-76
2023/06/08 14:21:36;;;;;;;14.60;3.95;;;25.50;99.90;;;;;;4959037;29;20058;-77
2023/06/08 14:24:02;;;;;;;8.68;3.65;;;25.50;99.90;;;;;;4958285;29;20039;-78
2023/06/08 14:26:29;;;;;;;7.82;3.42;;;25.40;99.90;;;;;;4958656;29;20043;-79
2023/06/08 14:28:55;;;;;;;12.55;3.33;;;25.40;99.90;;;;;;4942581;29;20167;-80
2023/06/08 14:31:20;;;;;;;6.85;3.38;;;25.50;99.90;;;;;;4958105;29;20511;-78
2023/06/08 14:33:46;;;;;;;15.85;3.65;;;25.50;99.90;;;;;;4958378;29;20035;-77
2023/06/08 14:36:12;;;;;;;12.25;3.85;;;25.30;99.90;;;;;;4958577;29;20390;-79
2023/06/08 14:38:37;;;;;;;9.50;3.30;;;25.40;99.90;;;;;;4958387;29;20043;-79
2023/06/08 14:41:03;;;;;;;10.52;3.83;;;25.30;99.90;;;;;;4958899;29;20394;-77
2023/06/08 14:43:29;;;;;;;8.13;3.28;;;25.20;99.90;;;;;;4959651;28;20047;-78
2023/06/08 14:45:55;;;;;;;8.75;3.22;;;25.20;99.90;;;;;;4941190;29;20538;-78
2023/06/08 14:48:21;;;;;;;8.35;3.10;;;25.20;99.70;;;;;;4959379;28;20078;-78
2023/06/08 14:50:46;;;;;;;9.70;3.40;;;25.20;99.60;;;;;;4941696;28;20086;-79
2023/06/08 14:53:12;;;;;;;8.52;3.05;;;25.20;99.20;;;;;;4957594;29;20039;-77
2023/06/08 14:55:39;;;;;;;9.05;3.47;;;25.20;99.40;;;;;;4957361;29;20039;-79
2023/06/08 14:58:04;;;;;;;8.15;3.10;;;25.20;99.40;;;;;;4959274;28;20050;-79
2023/06/08 15:00:30;;;;;;;11.52;4.32;;;25.20;99.30;;;;;;4957459;28;20039;-77
2023/06/08 15:02:56;;;;;;;7.35;3.10;;;25.20;98.70;;;;;;4941696;29;20047;-78
2023/06/08 15:05:21;;;;;;;8.95;3.40;;;25.20;98.90;;;;;;4957870;29;20164;-79
2023/06/08 15:07:47;;;;;;;9.07;3.10;;;25.10;98.50;;;;;;4957487;29;20399;-77
2023/06/08 15:10:13;;;;;;;11.68;3.42;;;25.20;98.00;;;;;;4959006;28;20039;-79
2023/06/08 15:12:38;;;;;;;12.80;3.05;;;25.00;97.90;;;;;;4958692;28;20040;-76
2023/06/08 15:15:04;;;;;;;11.82;3.20;;;25.00;97.80;;;;;;4959383;29;20054;-78
2023/06/08 15:17:30;;;;;;;8.15;2.95;;;25.00;98.00;;;;;;4958635;29;20510;-77
2023/06/08 15:19:56;;;;;;;7.68;2.90;;;25.10;98.40;;;;;;4957872;29;20055;-77
2023/06/08 15:22:21;;;;;;;8.07;3.05;;;25.10;98.00;;;;;;4941277;28;20044;-75
2023/06/08 15:24:47;;;;;;;7.68;3.05;;;25.00;97.60;;;;;;4957391;29;20039;-79
2023/06/08 15:27:13;;;;;;;9.95;3.47;;;24.90;97.90;;;;;;4959151;28;20043;-78
2023/06/08 15:29:38;;;;;;;12.57;4.85;;;25.00;97.90;;;;;;4959296;28;20471;-76
2023/06/08 15:32:04;;;;;;;7.85;3.05;;;25.00;97.70;;;;;;4956813;29;20043;-79
2023/06/08 15:34:30;;;;;;;7.15;2.78;;;25.00;97.80;;;;;;4956674;29;20517;-80
2023/06/08 15:36:56;;;;;;;9.73;3.72;;;24.90;97.40;;;;;;4956673;29;20129;-78